sensor_id;sensor_type;location;lat;lon;timestamp;P1;durP1;ratioP1;P2;durP2;ratioP2
80852;SDS011;70270;43.434;28.338;2023-07-31T00:02:24;5.00;;;2.80;;
80852;SDS011;70270;43.434;28.338;2023-07-31T00:05:09;5.07;;;2.97;;
80852;SDS011;70270;43.434;28.338;2023-07-31T00:07:54;3.88;;;2.80;;
80852;SDS011;70270;43.434;28.338;2023-07-31T00:10:38;5.05;;;2.83;;
80852;SDS011;70270;43.434;28.338;2023-07-31T00:13:23;3.78;;;3.00;;
80852;SDS011;70270;43.434;28.338;2023-07-31T00:16:12;3.65;;;2.95;;
80852;SDS011;70270;43.434;28.338;2023-07-31T00:18:59;4.40;;;2.90;;
80852;SDS011;70270;43.434;28.338;2023-07-31T00:21:44;4.53;;;2.78;;
80852;SDS011;70270;43.434;28.338;2023-07-31T00:24:28;4.57;;;2.72;;
80852;SDS011;70270;43.434;28.338;2023-07-31T00:27:16;4.40;;;2.72;;
80852;SDS011;70270;43.434;28.338;2023-07-31T00:30:01;4.82;;;3.10;;
80852;SDS011;70270;43.434;28.338;2023-07-31T00:32:46;8.00;;;3.53;;
80852;SDS011;70270;43.434;28.338;2023-07-31T00:35:33;6.50;;;3.40;;
80852;SDS011;70270;43.434;28.338;2023-07-31T00:38:17;4.40;;;3.10;;
80852;SDS011;70270;43.434;28.338;2023-07-31T00:41:02;4.82;;;3.20;;
80852;SDS011;70270;43.434;28.338;2023-07-31T00:43:46;3.67;;;2.75;;
80852;SDS011;70270;43.434;28.338;2023-07-31T00:46:31;5.47;;;2.90;;
80852;SDS011;70270;43.434;28.338;2023-07-31T00:49:16;5.50;;;3.22;;
80852;SDS011;70270;43.434;28.338;2023-07-31T00:52:00;3.55;;;2.80;;
80852;SDS011;70270;43.434;28.338;2023-07-31T00:54:47;3.70;;;3.03;;
80852;SDS011;70270;43.434;28.338;2023-07-31T00:57:33;4.82;;;2.92;;
80852;SDS011;70270;43.434;28.338;2023-07-31T01:03:04;4.38;;;3.13;;
80852;SDS011;70270;43.434;28.338;2023-07-31T01:06:22;5.13;;;3.30;;
80852;SDS011;70270;43.434;28.338;2023-07-31T01:09:12;3.40;;;2.90;;
80852;SDS011;70270;43.434;28.338;2023-07-31T01:12:14;8.65;;;4.47;;
80852;SDS011;70270;43.434;28.338;2023-07-31T01:17:48;4.30;;;3.13;;
80852;SDS011;70270;43.434;28.338;2023-07-31T01:20:33;3.65;;;3.00;;
80852;SDS011;70270;43.434;28.338;2023-07-31T01:26:42;5.05;;;3.33;;
80852;SDS011;70270;43.434;28.338;2023-07-31T01:32:21;6.35;;;3.05;;
80852;SDS011;70270;43.434;28.338;2023-07-31T01:35:07;4.45;;;3.15;;
80852;SDS011;70270;43.434;28.338;2023-07-31T01:37:53;4.35;;;3.30;;
80852;SDS011;70270;43.434;28.338;2023-07-31T01:40:40;4.88;;;2.90;;
80852;SDS011;70270;43.434;28.338;2023-07-31T01:43:26;4.82;;;2.78;;
80852;SDS011;70270;43.434;28.338;2023-07-31T01:46:11;3.72;;;2.97;;
80852;SDS011;70270;43.434;28.338;2023-07-31T01:48:56;4.30;;;3.20;;
80852;SDS011;70270;43.434;28.338;2023-07-31T01:51:44;4.70;;;3.15;;
80852;SDS011;70270;43.434;28.338;2023-07-31T01:54:31;4.57;;;3.25;;
80852;SDS011;70270;43.434;28.338;2023-07-31T01:57:16;4.55;;;3.60;;
80852;SDS011;70270;43.434;28.338;2023-07-31T02:00:00;4.95;;;3.88;;
80852;SDS011;70270;43.434;28.338;2023-07-31T02:02:56;5.28;;;3.65;;
80852;SDS011;70270;43.434;28.338;2023-07-31T02:05:45;4.45;;;3.75;;
80852;SDS011;70270;43.434;28.338;2023-07-31T02:08:33;6.13;;;4.00;;
80852;SDS011;70270;43.434;28.338;2023-07-31T02:11:17;7.50;;;3.90;;
80852;SDS011;70270;43.434;28.338;2023-07-31T02:14:02;4.38;;;3.75;;
80852;SDS011;70270;43.434;28.338;2023-07-31T02:16:47;7.13;;;4.53;;
80852;SDS011;70270;43.434;28.338;2023-07-31T02:19:32;7.90;;;4.65;;
80852;SDS011;70270;43.434;28.338;2023-07-31T02:22:17;11.55;;;4.93;;
80852;SDS011;70270;43.434;28.338;2023-07-31T02:25:02;7.05;;;5.20;;
80852;SDS011;70270;43.434;28.338;2023-07-31T02:27:49;4.85;;;4.25;;
80852;SDS011;70270;43.434;28.338;2023-07-31T02:30:33;5.38;;;4.30;;
80852;SDS011;70270;43.434;28.338;2023-07-31T02:33:18;6.97;;;4.30;;
80852;SDS011;70270;43.434;28.338;2023-07-31T02:38:48;9.43;;;4.82;;
80852;SDS011;70270;43.434;28.338;2023-07-31T02:41:36;5.15;;;4.22;;
80852;SDS011;70270;43.434;28.338;2023-07-31T02:44:20;5.80;;;4.38;;
80852;SDS011;70270;43.434;28.338;2023-07-31T02:47:04;4.82;;;4.10;;
80852;SDS011;70270;43.434;28.338;2023-07-31T02:49:51;6.22;;;4.25;;
80852;SDS011;70270;43.434;28.338;2023-07-31T02:52:35;6.13;;;4.18;;
80852;SDS011;70270;43.434;28.338;2023-07-31T02:55:20;8.15;;;4.28;;
80852;SDS011;70270;43.434;28.338;2023-07-31T02:58:07;4.88;;;4.00;;
80852;SDS011;70270;43.434;28.338;2023-07-31T03:00:52;5.57;;;4.22;;
80852;SDS011;70270;43.434;28.338;2023-07-31T03:03:36;5.95;;;4.53;;
80852;SDS011;70270;43.434;28.338;2023-07-31T03:06:21;6.25;;;3.70;;
80852;SDS011;70270;43.434;28.338;2023-07-31T03:09:06;5.50;;;3.80;;
80852;SDS011;70270;43.434;28.338;2023-07-31T03:11:50;5.72;;;4.03;;
80852;SDS011;70270;43.434;28.338;2023-07-31T03:14:35;4.00;;;3.28;;
80852;SDS011;70270;43.434;28.338;2023-07-31T03:17:19;7.40;;;3.78;;
80852;SDS011;70270;43.434;28.338;2023-07-31T03:20:04;6.78;;;3.65;;
80852;SDS011;70270;43.434;28.338;2023-07-31T03:22:49;5.35;;;3.65;;
80852;SDS011;70270;43.434;28.338;2023-07-31T03:25:33;4.75;;;3.67;;
80852;SDS011;70270;43.434;28.338;2023-07-31T03:28:18;5.57;;;3.55;;
80852;SDS011;70270;43.434;28.338;2023-07-31T03:31:03;5.47;;;3.67;;
80852;SDS011;70270;43.434;28.338;2023-07-31T03:33:47;3.60;;;3.10;;
80852;SDS011;70270;43.434;28.338;2023-07-31T03:36:32;6.35;;;3.67;;
80852;SDS011;70270;43.434;28.338;2023-07-31T03:39:16;4.43;;;3.25;;
80852;SDS011;70270;43.434;28.338;2023-07-31T03:42:01;4.90;;;3.45;;
80852;SDS011;70270;43.434;28.338;2023-07-31T03:44:47;5.95;;;3.58;;
80852;SDS011;70270;43.434;28.338;2023-07-31T03:47:31;4.90;;;3.25;;
80852;SDS011;70270;43.434;28.338;2023-07-31T03:50:16;4.95;;;3.03;;
80852;SDS011;70270;43.434;28.338;2023-07-31T03:53:01;4.80;;;3.30;;
80852;SDS011;70270;43.434;28.338;2023-07-31T03:55:46;6.10;;;3.45;;
80852;SDS011;70270;43.434;28.338;2023-07-31T03:58:31;4.60;;;3.40;;
80852;SDS011;70270;43.434;28.338;2023-07-31T04:01:17;4.95;;;3.00;;
80852;SDS011;70270;43.434;28.338;2023-07-31T04:04:03;6.07;;;3.22;;
80852;SDS011;70270;43.434;28.338;2023-07-31T04:06:49;4.25;;;3.13;;
80852;SDS011;70270;43.434;28.338;2023-07-31T04:09:34;5.70;;;2.85;;
80852;SDS011;70270;43.434;28.338;2023-07-31T04:12:19;5.47;;;3.50;;
80852;SDS011;70270;43.434;28.338;2023-07-31T04:15:03;10.02;;;5.63;;
80852;SDS011;70270;43.434;28.338;2023-07-31T04:17:48;5.55;;;3.05;;
80852;SDS011;70270;43.434;28.338;2023-07-31T04:20:33;3.92;;;3.10;;
80852;SDS011;70270;43.434;28.338;2023-07-31T04:23:20;6.13;;;4.32;;
80852;SDS011;70270;43.434;28.338;2023-07-31T04:26:04;6.32;;;4.32;;
80852;SDS011;70270;43.434;28.338;2023-07-31T04:28:49;6.68;;;4.70;;
80852;SDS011;70270;43.434;28.338;2023-07-31T04:31:34;6.57;;;4.15;;
80852;SDS011;70270;43.434;28.338;2023-07-31T04:34:18;5.75;;;3.35;;
80852;SDS011;70270;43.434;28.338;2023-07-31T04:37:03;7.05;;;3.15;;
80852;SDS011;70270;43.434;28.338;2023-07-31T04:39:47;7.50;;;6.07;;
80852;SDS011;70270;43.434;28.338;2023-07-31T04:42:32;6.43;;;4.47;;
80852;SDS011;70270;43.434;28.338;2023-07-31T04:45:16;5.13;;;3.88;;
80852;SDS011;70270;43.434;28.338;2023-07-31T04:48:01;5.63;;;3.33;;
80852;SDS011;70270;43.434;28.338;2023-07-31T04:50:45;4.93;;;3.47;;
80852;SDS011;70270;43.434;28.338;2023-07-31T04:53:30;6.57;;;3.20;;
80852;SDS011;70270;43.434;28.338;2023-07-31T04:56:17;5.07;;;2.90;;
80852;SDS011;70270;43.434;28.338;2023-07-31T04:59:01;5.50;;;3.17;;
80852;SDS011;70270;43.434;28.338;2023-07-31T05:01:46;11.63;;;5.78;;
80852;SDS011;70270;43.434;28.338;2023-07-31T05:04:30;10.00;;;6.13;;
80852;SDS011;70270;43.434;28.338;2023-07-31T05:07:18;8.65;;;3.92;;
80852;SDS011;70270;43.434;28.338;2023-07-31T05:10:02;5.30;;;3.55;;
80852;SDS011;70270;43.434;28.338;2023-07-31T05:12:49;3.60;;;2.80;;
80852;SDS011;70270;43.434;28.338;2023-07-31T05:15:34;7.88;;;3.53;;
80852;SDS011;70270;43.434;28.338;2023-07-31T05:18:18;5.82;;;3.10;;
80852;SDS011;70270;43.434;28.338;2023-07-31T05:21:02;3.50;;;3.00;;
80852;SDS011;70270;43.434;28.338;2023-07-31T05:23:47;4.55;;;2.80;;
80852;SDS011;70270;43.434;28.338;2023-07-31T05:26:32;6.13;;;3.22;;
80852;SDS011;70270;43.434;28.338;2023-07-31T05:29:19;8.45;;;3.10;;
80852;SDS011;70270;43.434;28.338;2023-07-31T05:32:03;3.35;;;2.72;;
80852;SDS011;70270;43.434;28.338;2023-07-31T05:34:51;4.72;;;3.20;;
80852;SDS011;70270;43.434;28.338;2023-07-31T05:37:36;4.43;;;3.10;;
80852;SDS011;70270;43.434;28.338;2023-07-31T05:40:21;6.95;;;3.25;;
80852;SDS011;70270;43.434;28.338;2023-07-31T05:43:08;4.03;;;2.90;;
80852;SDS011;70270;43.434;28.338;2023-07-31T05:45:53;12.80;;;3.38;;
80852;SDS011;70270;43.434;28.338;2023-07-31T05:48:38;6.40;;;3.33;;
80852;SDS011;70270;43.434;28.338;2023-07-31T05:51:22;6.47;;;3.22;;
80852;SDS011;70270;43.434;28.338;2023-07-31T05:54:09;4.72;;;3.10;;
80852;SDS011;70270;43.434;28.338;2023-07-31T05:56:55;5.50;;;2.70;;
80852;SDS011;70270;43.434;28.338;2023-07-31T05:59:39;4.28;;;2.70;;
80852;SDS011;70270;43.434;28.338;2023-07-31T06:02:24;5.63;;;3.25;;
80852;SDS011;70270;43.434;28.338;2023-07-31T06:05:08;4.45;;;3.33;;
80852;SDS011;70270;43.434;28.338;2023-07-31T06:07:53;6.38;;;4.30;;
80852;SDS011;70270;43.434;28.338;2023-07-31T06:10:37;6.75;;;4.57;;
80852;SDS011;70270;43.434;28.338;2023-07-31T06:13:22;5.00;;;3.15;;
80852;SDS011;70270;43.434;28.338;2023-07-31T06:16:07;5.88;;;4.28;;
80852;SDS011;70270;43.434;28.338;2023-07-31T06:18:56;5.18;;;3.88;;
80852;SDS011;70270;43.434;28.338;2023-07-31T06:21:41;11.88;;;8.77;;
80852;SDS011;70270;43.434;28.338;2023-07-31T06:24:27;15.18;;;11.63;;
80852;SDS011;70270;43.434;28.338;2023-07-31T06:27:12;20.00;;;15.02;;
80852;SDS011;70270;43.434;28.338;2023-07-31T06:29:57;7.10;;;5.38;;
80852;SDS011;70270;43.434;28.338;2023-07-31T06:32:41;9.35;;;4.65;;
80852;SDS011;70270;43.434;28.338;2023-07-31T06:35:26;5.82;;;4.63;;
80852;SDS011;70270;43.434;28.338;2023-07-31T06:38:11;6.28;;;4.95;;
80852;SDS011;70270;43.434;28.338;2023-07-31T06:40:55;6.18;;;5.10;;
80852;SDS011;70270;43.434;28.338;2023-07-31T06:43:40;5.70;;;5.10;;
80852;SDS011;70270;43.434;28.338;2023-07-31T06:46:24;7.18;;;4.97;;
80852;SDS011;70270;43.434;28.338;2023-07-31T06:49:09;9.20;;;5.25;;
80852;SDS011;70270;43.434;28.338;2023-07-31T06:51:53;9.20;;;5.55;;
80852;SDS011;70270;43.434;28.338;2023-07-31T06:54:37;6.28;;;5.15;;
80852;SDS011;70270;43.434;28.338;2023-07-31T06:57:22;5.60;;;4.63;;
80852;SDS011;70270;43.434;28.338;2023-07-31T07:00:07;7.20;;;5.45;;
80852;SDS011;70270;43.434;28.338;2023-07-31T07:02:52;5.60;;;5.03;;
80852;SDS011;70270;43.434;28.338;2023-07-31T07:05:36;6.88;;;5.30;;
80852;SDS011;70270;43.434;28.338;2023-07-31T07:08:21;6.55;;;5.70;;
80852;SDS011;70270;43.434;28.338;2023-07-31T07:11:05;5.75;;;4.82;;
80852;SDS011;70270;43.434;28.338;2023-07-31T07:13:50;6.00;;;4.63;;
80852;SDS011;70270;43.434;28.338;2023-07-31T07:16:34;6.03;;;5.22;;
80852;SDS011;70270;43.434;28.338;2023-07-31T07:19:19;6.63;;;5.03;;
80852;SDS011;70270;43.434;28.338;2023-07-31T07:22:04;5.57;;;4.95;;
80852;SDS011;70270;43.434;28.338;2023-07-31T07:24:49;6.75;;;4.72;;
80852;SDS011;70270;43.434;28.338;2023-07-31T07:27:34;8.15;;;5.40;;
80852;SDS011;70270;43.434;28.338;2023-07-31T07:30:21;6.97;;;5.38;;
80852;SDS011;70270;43.434;28.338;2023-07-31T07:33:05;5.30;;;4.80;;
80852;SDS011;70270;43.434;28.338;2023-07-31T07:35:50;7.53;;;4.55;;
80852;SDS011;70270;43.434;28.338;2023-07-31T07:38:34;7.13;;;4.72;;
80852;SDS011;70270;43.434;28.338;2023-07-31T07:41:18;5.80;;;4.90;;
80852;SDS011;70270;43.434;28.338;2023-07-31T07:44:03;6.22;;;4.90;;
80852;SDS011;70270;43.434;28.338;2023-07-31T07:46:48;5.13;;;4.57;;
80852;SDS011;70270;43.434;28.338;2023-07-31T07:49:33;7.45;;;4.85;;
80852;SDS011;70270;43.434;28.338;2023-07-31T07:52:19;11.20;;;5.97;;
80852;SDS011;70270;43.434;28.338;2023-07-31T07:55:03;6.88;;;5.20;;
80852;SDS011;70270;43.434;28.338;2023-07-31T07:57:48;5.30;;;4.63;;
80852;SDS011;70270;43.434;28.338;2023-07-31T08:00:34;6.40;;;5.03;;
80852;SDS011;70270;43.434;28.338;2023-07-31T08:03:19;7.85;;;4.85;;
80852;SDS011;70270;43.434;28.338;2023-07-31T08:06:03;6.68;;;4.80;;
80852;SDS011;70270;43.434;28.338;2023-07-31T08:08:48;5.20;;;4.53;;
80852;SDS011;70270;43.434;28.338;2023-07-31T08:11:32;5.50;;;3.60;;
80852;SDS011;70270;43.434;28.338;2023-07-31T08:14:17;4.68;;;2.92;;
80852;SDS011;70270;43.434;28.338;2023-07-31T08:17:01;4.05;;;3.25;;
80852;SDS011;70270;43.434;28.338;2023-07-31T08:19:46;5.38;;;3.60;;
80852;SDS011;70270;43.434;28.338;2023-07-31T08:22:33;6.95;;;3.78;;
80852;SDS011;70270;43.434;28.338;2023-07-31T08:25:18;6.13;;;3.55;;
80852;SDS011;70270;43.434;28.338;2023-07-31T08:28:02;4.75;;;3.60;;
80852;SDS011;70270;43.434;28.338;2023-07-31T08:30:47;4.70;;;3.47;;
80852;SDS011;70270;43.434;28.338;2023-07-31T08:33:32;6.43;;;3.58;;
80852;SDS011;70270;43.434;28.338;2023-07-31T08:36:16;4.20;;;3.70;;
80852;SDS011;70270;43.434;28.338;2023-07-31T08:39:01;4.40;;;3.70;;
80852;SDS011;70270;43.434;28.338;2023-07-31T08:41:45;4.60;;;3.88;;
80852;SDS011;70270;43.434;28.338;2023-07-31T08:44:30;4.70;;;3.83;;
80852;SDS011;70270;43.434;28.338;2023-07-31T08:47:16;7.10;;;4.22;;
80852;SDS011;70270;43.434;28.338;2023-07-31T08:50:01;6.15;;;3.97;;
80852;SDS011;70270;43.434;28.338;2023-07-31T08:52:47;5.10;;;3.92;;
80852;SDS011;70270;43.434;28.338;2023-07-31T08:55:33;6.38;;;3.80;;
80852;SDS011;70270;43.434;28.338;2023-07-31T08:58:17;4.95;;;3.85;;
80852;SDS011;70270;43.434;28.338;2023-07-31T09:01:03;5.20;;;4.13;;
80852;SDS011;70270;43.434;28.338;2023-07-31T09:03:49;5.60;;;4.03;;
80852;SDS011;70270;43.434;28.338;2023-07-31T09:06:37;7.85;;;5.03;;
80852;SDS011;70270;43.434;28.338;2023-07-31T09:09:23;6.90;;;5.03;;
80852;SDS011;70270;43.434;28.338;2023-07-31T09:12:07;7.88;;;5.05;;
80852;SDS011;70270;43.434;28.338;2023-07-31T09:14:52;5.93;;;4.28;;
80852;SDS011;70270;43.434;28.338;2023-07-31T09:17:36;5.03;;;3.88;;
80852;SDS011;70270;43.434;28.338;2023-07-31T09:20:21;4.68;;;4.00;;
80852;SDS011;70270;43.434;28.338;2023-07-31T09:23:09;4.93;;;3.90;;
80852;SDS011;70270;43.434;28.338;2023-07-31T09:25:55;4.95;;;4.40;;
80852;SDS011;70270;43.434;28.338;2023-07-31T09:28:40;5.35;;;4.45;;
80852;SDS011;70270;43.434;28.338;2023-07-31T09:34:29;5.47;;;4.22;;
80852;SDS011;70270;43.434;28.338;2023-07-31T09:37:21;4.75;;;4.25;;
80852;SDS011;70270;43.434;28.338;2023-07-31T09:40:05;6.18;;;4.50;;
80852;SDS011;70270;43.434;28.338;2023-07-31T09:42:50;6.15;;;4.60;;
80852;SDS011;70270;43.434;28.338;2023-07-31T09:45:35;5.85;;;4.93;;
80852;SDS011;70270;43.434;28.338;2023-07-31T09:48:22;4.90;;;4.40;;
80852;SDS011;70270;43.434;28.338;2023-07-31T09:51:09;8.35;;;4.68;;
80852;SDS011;70270;43.434;28.338;2023-07-31T09:53:54;6.10;;;4.22;;
80852;SDS011;70270;43.434;28.338;2023-07-31T09:56:41;7.80;;;5.85;;
80852;SDS011;70270;43.434;28.338;2023-07-31T09:59:27;7.78;;;5.45;;
80852;SDS011;70270;43.434;28.338;2023-07-31T10:02:13;6.35;;;4.50;;
80852;SDS011;70270;43.434;28.338;2023-07-31T10:05:05;7.38;;;5.07;;
80852;SDS011;70270;43.434;28.338;2023-07-31T10:07:56;5.25;;;4.25;;
80852;SDS011;70270;43.434;28.338;2023-07-31T10:10:43;5.15;;;4.45;;
80852;SDS011;70270;43.434;28.338;2023-07-31T10:13:32;11.82;;;6.07;;
80852;SDS011;70270;43.434;28.338;2023-07-31T10:16:18;6.00;;;5.13;;
80852;SDS011;70270;43.434;28.338;2023-07-31T10:19:06;6.50;;;5.57;;
80852;SDS011;70270;43.434;28.338;2023-07-31T10:21:54;7.47;;;5.20;;
80852;SDS011;70270;43.434;28.338;2023-07-31T10:24:45;5.57;;;4.45;;
80852;SDS011;70270;43.434;28.338;2023-07-31T10:27:30;4.78;;;4.28;;
80852;SDS011;70270;43.434;28.338;2023-07-31T10:30:15;6.40;;;4.70;;
80852;SDS011;70270;43.434;28.338;2023-07-31T10:33:01;6.13;;;4.90;;
80852;SDS011;70270;43.434;28.338;2023-07-31T10:35:49;5.63;;;4.78;;
80852;SDS011;70270;43.434;28.338;2023-07-31T10:38:38;6.88;;;4.75;;
80852;SDS011;70270;43.434;28.338;2023-07-31T10:41:31;6.32;;;5.22;;
80852;SDS011;70270;43.434;28.338;2023-07-31T10:44:16;5.90;;;5.07;;
80852;SDS011;70270;43.434;28.338;2023-07-31T10:47:01;8.20;;;4.93;;
80852;SDS011;70270;43.434;28.338;2023-07-31T10:49:46;6.70;;;4.45;;
80852;SDS011;70270;43.434;28.338;2023-07-31T10:52:31;6.63;;;4.95;;
80852;SDS011;70270;43.434;28.338;2023-07-31T10:58:33;5.28;;;4.78;;
80852;SDS011;70270;43.434;28.338;2023-07-31T11:01:18;6.38;;;5.00;;
80852;SDS011;70270;43.434;28.338;2023-07-31T11:04:07;5.20;;;4.50;;
80852;SDS011;70270;43.434;28.338;2023-07-31T11:06:55;6.93;;;4.90;;
80852;SDS011;70270;43.434;28.338;2023-07-31T11:09:41;6.07;;;4.82;;
80852;SDS011;70270;43.434;28.338;2023-07-31T11:12:25;5.43;;;4.68;;
80852;SDS011;70270;43.434;28.338;2023-07-31T11:15:11;6.18;;;5.57;;
80852;SDS011;70270;43.434;28.338;2023-07-31T11:17:56;4.90;;;4.25;;
80852;SDS011;70270;43.434;28.338;2023-07-31T11:20:42;6.22;;;4.50;;
80852;SDS011;70270;43.434;28.338;2023-07-31T11:23:26;6.47;;;4.70;;
80852;SDS011;70270;43.434;28.338;2023-07-31T11:26:11;6.45;;;4.78;;
80852;SDS011;70270;43.434;28.338;2023-07-31T11:28:56;7.57;;;4.82;;
80852;SDS011;70270;43.434;28.338;2023-07-31T11:31:43;8.52;;;4.75;;
80852;SDS011;70270;43.434;28.338;2023-07-31T11:34:28;5.85;;;4.28;;
80852;SDS011;70270;43.434;28.338;2023-07-31T11:37:13;6.30;;;3.95;;
80852;SDS011;70270;43.434;28.338;2023-07-31T11:40:00;5.15;;;4.38;;
80852;SDS011;70270;43.434;28.338;2023-07-31T11:42:46;6.15;;;4.10;;
80852;SDS011;70270;43.434;28.338;2023-07-31T11:45:30;4.57;;;4.13;;
80852;SDS011;70270;43.434;28.338;2023-07-31T11:48:22;7.38;;;4.22;;
80852;SDS011;70270;43.434;28.338;2023-07-31T11:51:12;5.65;;;4.13;;
80852;SDS011;70270;43.434;28.338;2023-07-31T11:53:58;4.78;;;4.28;;
80852;SDS011;70270;43.434;28.338;2023-07-31T11:56:45;5.00;;;4.07;;
80852;SDS011;70270;43.434;28.338;2023-07-31T11:59:29;6.90;;;4.65;;
80852;SDS011;70270;43.434;28.338;2023-07-31T12:02:14;7.18;;;5.32;;
80852;SDS011;70270;43.434;28.338;2023-07-31T12:04:59;6.65;;;4.93;;
80852;SDS011;70270;43.434;28.338;2023-07-31T12:07:47;5.82;;;4.63;;
80852;SDS011;70270;43.434;28.338;2023-07-31T12:10:33;6.65;;;4.65;;
80852;SDS011;70270;43.434;28.338;2023-07-31T12:13:21;7.18;;;5.07;;
80852;SDS011;70270;43.434;28.338;2023-07-31T12:16:10;14.63;;;9.55;;
80852;SDS011;70270;43.434;28.338;2023-07-31T12:18:54;24.30;;;15.85;;
80852;SDS011;70270;43.434;28.338;2023-07-31T12:21:39;21.40;;;14.07;;
80852;SDS011;70270;43.434;28.338;2023-07-31T12:24:23;9.52;;;6.97;;
80852;SDS011;70270;43.434;28.338;2023-07-31T12:27:10;5.80;;;4.72;;
80852;SDS011;70270;43.434;28.338;2023-07-31T12:29:58;5.93;;;5.20;;
80852;SDS011;70270;43.434;28.338;2023-07-31T12:32:43;5.47;;;4.57;;
80852;SDS011;70270;43.434;28.338;2023-07-31T12:35:34;5.38;;;4.25;;
80852;SDS011;70270;43.434;28.338;2023-07-31T12:38:19;7.13;;;4.78;;
80852;SDS011;70270;43.434;28.338;2023-07-31T12:41:04;6.25;;;4.80;;
80852;SDS011;70270;43.434;28.338;2023-07-31T12:43:50;7.05;;;4.40;;
80852;SDS011;70270;43.434;28.338;2023-07-31T12:46:35;5.22;;;4.35;;
80852;SDS011;70270;43.434;28.338;2023-07-31T12:49:19;4.95;;;4.45;;
80852;SDS011;70270;43.434;28.338;2023-07-31T12:52:04;5.68;;;4.68;;
80852;SDS011;70270;43.434;28.338;2023-07-31T12:54:49;6.45;;;4.38;;
80852;SDS011;70270;43.434;28.338;2023-07-31T12:57:33;4.97;;;4.40;;
80852;SDS011;70270;43.434;28.338;2023-07-31T13:00:18;7.05;;;4.32;;
80852;SDS011;70270;43.434;28.338;2023-07-31T13:03:03;7.95;;;4.68;;
80852;SDS011;70270;43.434;28.338;2023-07-31T13:05:47;4.65;;;4.15;;
80852;SDS011;70270;43.434;28.338;2023-07-31T13:08:31;5.75;;;4.35;;
80852;SDS011;70270;43.434;28.338;2023-07-31T13:11:16;4.20;;;3.80;;
80852;SDS011;70270;43.434;28.338;2023-07-31T13:14:00;5.95;;;4.40;;
80852;SDS011;70270;43.434;28.338;2023-07-31T13:16:45;5.60;;;4.53;;
80852;SDS011;70270;43.434;28.338;2023-07-31T13:19:32;6.10;;;4.32;;
80852;SDS011;70270;43.434;28.338;2023-07-31T13:22:16;5.55;;;4.10;;
80852;SDS011;70270;43.434;28.338;2023-07-31T13:25:01;5.07;;;3.97;;
80852;SDS011;70270;43.434;28.338;2023-07-31T13:27:46;6.35;;;4.47;;
80852;SDS011;70270;43.434;28.338;2023-07-31T13:30:30;6.78;;;3.92;;
80852;SDS011;70270;43.434;28.338;2023-07-31T13:33:14;4.82;;;4.32;;
80852;SDS011;70270;43.434;28.338;2023-07-31T13:36:01;5.28;;;4.78;;
80852;SDS011;70270;43.434;28.338;2023-07-31T13:38:45;6.82;;;4.50;;
80852;SDS011;70270;43.434;28.338;2023-07-31T13:41:30;6.28;;;4.70;;
80852;SDS011;70270;43.434;28.338;2023-07-31T13:44:14;5.50;;;4.43;;
80852;SDS011;70270;43.434;28.338;2023-07-31T13:46:59;5.03;;;4.43;;
80852;SDS011;70270;43.434;28.338;2023-07-31T13:49:44;6.88;;;5.00;;
80852;SDS011;70270;43.434;28.338;2023-07-31T13:52:29;6.68;;;5.72;;
80852;SDS011;70270;43.434;28.338;2023-07-31T13:55:13;10.23;;;5.65;;
80852;SDS011;70270;43.434;28.338;2023-07-31T13:57:58;6.43;;;4.65;;
80852;SDS011;70270;43.434;28.338;2023-07-31T14:00:42;4.45;;;4.00;;
80852;SDS011;70270;43.434;28.338;2023-07-31T14:03:27;6.07;;;4.68;;
80852;SDS011;70270;43.434;28.338;2023-07-31T14:06:11;5.22;;;4.53;;
80852;SDS011;70270;43.434;28.338;2023-07-31T14:08:55;6.57;;;5.68;;
80852;SDS011;70270;43.434;28.338;2023-07-31T14:11:40;6.35;;;4.90;;
80852;SDS011;70270;43.434;28.338;2023-07-31T14:14:24;6.07;;;5.20;;
80852;SDS011;70270;43.434;28.338;2023-07-31T14:17:09;7.32;;;4.75;;
80852;SDS011;70270;43.434;28.338;2023-07-31T14:19:54;5.90;;;4.05;;
80852;SDS011;70270;43.434;28.338;2023-07-31T14:22:38;8.20;;;4.32;;
80852;SDS011;70270;43.434;28.338;2023-07-31T14:25:23;5.93;;;4.32;;
80852;SDS011;70270;43.434;28.338;2023-07-31T14:28:07;7.13;;;4.35;;
80852;SDS011;70270;43.434;28.338;2023-07-31T14:30:52;5.50;;;4.95;;
80852;SDS011;70270;43.434;28.338;2023-07-31T14:33:37;4.75;;;4.22;;
80852;SDS011;70270;43.434;28.338;2023-07-31T14:36:21;6.10;;;4.22;;
80852;SDS011;70270;43.434;28.338;2023-07-31T14:39:06;8.05;;;4.43;;
80852;SDS011;70270;43.434;28.338;2023-07-31T14:41:50;4.43;;;3.97;;
80852;SDS011;70270;43.434;28.338;2023-07-31T14:44:35;5.60;;;4.43;;
80852;SDS011;70270;43.434;28.338;2023-07-31T14:47:19;4.82;;;4.22;;
80852;SDS011;70270;43.434;28.338;2023-07-31T14:50:04;4.40;;;4.00;;
80852;SDS011;70270;43.434;28.338;2023-07-31T14:52:48;5.75;;;3.92;;
80852;SDS011;70270;43.434;28.338;2023-07-31T14:55:33;4.25;;;3.80;;
80852;SDS011;70270;43.434;28.338;2023-07-31T14:58:17;6.45;;;3.83;;
80852;SDS011;70270;43.434;28.338;2023-07-31T15:01:02;6.53;;;4.47;;
80852;SDS011;70270;43.434;28.338;2023-07-31T15:03:46;5.50;;;4.43;;
80852;SDS011;70270;43.434;28.338;2023-07-31T15:06:31;5.13;;;3.70;;
80852;SDS011;70270;43.434;28.338;2023-07-31T15:09:15;6.68;;;3.80;;
80852;SDS011;70270;43.434;28.338;2023-07-31T15:12:00;4.60;;;4.10;;
80852;SDS011;70270;43.434;28.338;2023-07-31T15:14:44;7.25;;;4.25;;
80852;SDS011;70270;43.434;28.338;2023-07-31T15:17:29;4.68;;;3.70;;
80852;SDS011;70270;43.434;28.338;2023-07-31T15:20:14;8.70;;;4.28;;
80852;SDS011;70270;43.434;28.338;2023-07-31T15:22:58;6.53;;;4.53;;
80852;SDS011;70270;43.434;28.338;2023-07-31T15:25:43;5.97;;;4.63;;
80852;SDS011;70270;43.434;28.338;2023-07-31T15:28:27;10.50;;;4.97;;
80852;SDS011;70270;43.434;28.338;2023-07-31T15:31:12;4.70;;;4.05;;
80852;SDS011;70270;43.434;28.338;2023-07-31T15:33:57;4.72;;;3.90;;
80852;SDS011;70270;43.434;28.338;2023-07-31T15:36:41;5.25;;;3.72;;
80852;SDS011;70270;43.434;28.338;2023-07-31T15:39:26;6.93;;;3.75;;
80852;SDS011;70270;43.434;28.338;2023-07-31T15:42:10;8.05;;;4.00;;
80852;SDS011;70270;43.434;28.338;2023-07-31T15:44:55;5.32;;;4.43;;
80852;SDS011;70270;43.434;28.338;2023-07-31T15:47:39;6.05;;;5.05;;
80852;SDS011;70270;43.434;28.338;2023-07-31T15:50:24;6.72;;;4.68;;
80852;SDS011;70270;43.434;28.338;2023-07-31T15:53:09;6.50;;;5.22;;
80852;SDS011;70270;43.434;28.338;2023-07-31T15:55:53;10.60;;;4.40;;
80852;SDS011;70270;43.434;28.338;2023-07-31T15:58:38;5.18;;;3.90;;
80852;SDS011;70270;43.434;28.338;2023-07-31T16:01:22;5.22;;;3.85;;
80852;SDS011;70270;43.434;28.338;2023-07-31T16:04:07;4.45;;;3.70;;
80852;SDS011;70270;43.434;28.338;2023-07-31T16:06:51;5.05;;;3.58;;
80852;SDS011;70270;43.434;28.338;2023-07-31T16:09:35;5.57;;;4.07;;
80852;SDS011;70270;43.434;28.338;2023-07-31T16:12:20;5.93;;;4.25;;
80852;SDS011;70270;43.434;28.338;2023-07-31T16:15:05;4.97;;;3.92;;
80852;SDS011;70270;43.434;28.338;2023-07-31T16:17:50;5.38;;;3.55;;
80852;SDS011;70270;43.434;28.338;2023-07-31T16:20:34;4.03;;;3.60;;
80852;SDS011;70270;43.434;28.338;2023-07-31T16:23:19;3.95;;;3.55;;
80852;SDS011;70270;43.434;28.338;2023-07-31T16:26:04;4.38;;;3.92;;
80852;SDS011;70270;43.434;28.338;2023-07-31T16:28:51;4.15;;;3.38;;
80852;SDS011;70270;43.434;28.338;2023-07-31T16:31:36;9.57;;;3.78;;
80852;SDS011;70270;43.434;28.338;2023-07-31T16:34:20;5.57;;;3.78;;
80852;SDS011;70270;43.434;28.338;2023-07-31T16:37:11;5.50;;;4.70;;
80852;SDS011;70270;43.434;28.338;2023-07-31T16:39:56;6.80;;;3.85;;
80852;SDS011;70270;43.434;28.338;2023-07-31T16:42:40;5.65;;;4.50;;